sensor_id;sensor_type;location;lat;lon;timestamp;P1;durP1;ratioP1;P2;durP2;ratioP2
20369;SDS011;10344;47.592;9.600;2023-06-22T00:12:01;5.43;;;3.25;;
20369;SDS011;10344;47.592;9.600;2023-06-22T01:49:02;7.73;;;3.93;;
20369;SDS011;10344;47.592;9.600;2023-06-22T01:51:30;5.95;;;3.90;;
20369;SDS011;10344;47.592;9.600;2023-06-22T01:53:58;8.00;;;4.20;;
20369;SDS011;10344;47.592;9.600;2023-06-22T01:56:24;6.80;;;4.35;;
20369;SDS011;10344;47.592;9.600;2023-06-22T02:04:08;6.60;;;3.97;;
20369;SDS011;10344;47.592;9.600;2023-06-22T02:06:42;7.78;;;4.15;;
20369;SDS011;10344;47.592;9.600;2023-06-22T02:09:12;7.53;;;4.17;;
20369;SDS011;10344;47.592;9.600;2023-06-22T02:11:42;6.55;;;4.03;;
20369;SDS011;10344;47.592;9.600;2023-06-22T02:14:10;5.78;;;3.67;;
20369;SDS011;10344;47.592;9.600;2023-06-22T02:16:37;7.18;;;4.15;;
20369;SDS011;10344;47.592;9.600;2023-06-22T02:19:04;6.47;;;3.70;;
20369;SDS011;10344;47.592;9.600;2023-06-22T02:21:33;6.85;;;3.70;;
20369;SDS011;10344;47.592;9.600;2023-06-22T02:23:59;6.40;;;3.43;;
20369;SDS011;10344;47.592;9.600;2023-06-22T02:26:25;6.43;;;4.10;;
20369;SDS011;10344;47.592;9.600;2023-06-22T02:28:51;7.18;;;3.90;;
20369;SDS011;10344;47.592;9.600;2023-06-22T02:31:18;6.07;;;3.58;;
20369;SDS011;10344;47.592;9.600;2023-06-22T02:33:44;4.80;;;3.60;;
20369;SDS011;10344;47.592;9.600;2023-06-22T02:36:13;5.20;;;3.53;;
20369;SDS011;10344;47.592;9.600;2023-06-22T02:38:47;6.05;;;3.78;;
20369;SDS011;10344;47.592;9.600;2023-06-22T02:41:17;5.18;;;3.30;;
20369;SDS011;10344;47.592;9.600;2023-06-22T02:43:44;5.88;;;3.55;;
20369;SDS011;10344;47.592;9.600;2023-06-22T02:46:10;5.28;;;3.38;;
20369;SDS011;10344;47.592;9.600;2023-06-22T02:48:39;5.68;;;3.60;;
20369;SDS011;10344;47.592;9.600;2023-06-22T02:51:07;5.13;;;3.88;;
20369;SDS011;10344;47.592;9.600;2023-06-22T02:53:36;6.47;;;3.77;;
20369;SDS011;10344;47.592;9.600;2023-06-22T02:56:02;5.93;;;3.72;;
20369;SDS011;10344;47.592;9.600;2023-06-22T02:58:33;5.68;;;3.42;;
20369;SDS011;10344;47.592;9.600;2023-06-22T03:01:03;7.90;;;4.10;;
20369;SDS011;10344;47.592;9.600;2023-06-22T03:03:35;6.90;;;3.85;;
20369;SDS011;10344;47.592;9.600;2023-06-22T03:06:00;7.70;;;4.00;;
20369;SDS011;10344;47.592;9.600;2023-06-22T03:08:26;7.38;;;4.03;;
20369;SDS011;10344;47.592;9.600;2023-06-22T03:10:52;6.70;;;3.70;;
20369;SDS011;10344;47.592;9.600;2023-06-22T03:13:18;5.65;;;3.70;;
20369;SDS011;10344;47.592;9.600;2023-06-22T03:15:43;5.77;;;3.80;;
20369;SDS011;10344;47.592;9.600;2023-06-22T03:18:14;5.00;;;3.50;;
20369;SDS011;10344;47.592;9.600;2023-06-22T03:20:40;5.63;;;3.60;;
20369;SDS011;10344;47.592;9.600;2023-06-22T03:23:11;6.45;;;3.88;;
20369;SDS011;10344;47.592;9.600;2023-06-22T03:25:36;6.10;;;3.88;;
20369;SDS011;10344;47.592;9.600;2023-06-22T03:28:04;4.68;;;3.38;;
20369;SDS011;10344;47.592;9.600;2023-06-22T03:30:30;7.07;;;4.50;;
20369;SDS011;10344;47.592;9.600;2023-06-22T03:32:58;9.68;;;4.10;;
20369;SDS011;10344;47.592;9.600;2023-06-22T03:35:26;7.33;;;4.23;;
20369;SDS011;10344;47.592;9.600;2023-06-22T03:37:54;6.20;;;4.00;;
20369;SDS011;10344;47.592;9.600;2023-06-22T03:40:19;5.50;;;3.60;;
20369;SDS011;10344;47.592;9.600;2023-06-22T03:42:45;4.78;;;3.65;;
20369;SDS011;10344;47.592;9.600;2023-06-22T03:45:13;6.97;;;4.10;;
20369;SDS011;10344;47.592;9.600;2023-06-22T03:47:39;6.38;;;3.92;;
20369;SDS011;10344;47.592;9.600;2023-06-22T03:50:05;6.40;;;3.80;;
20369;SDS011;10344;47.592;9.600;2023-06-22T03:52:31;5.45;;;3.85;;
20369;SDS011;10344;47.592;9.600;2023-06-22T03:54:57;5.10;;;3.42;;
20369;SDS011;10344;47.592;9.600;2023-06-22T03:57:25;5.80;;;3.83;;
20369;SDS011;10344;47.592;9.600;2023-06-22T03:59:54;11.13;;;4.78;;
20369;SDS011;10344;47.592;9.600;2023-06-22T04:02:21;6.43;;;3.92;;
20369;SDS011;10344;47.592;9.600;2023-06-22T04:04:51;6.50;;;4.22;;
20369;SDS011;10344;47.592;9.600;2023-06-22T04:07:17;6.70;;;4.47;;
20369;SDS011;10344;47.592;9.600;2023-06-22T04:09:45;5.85;;;4.07;;
20369;SDS011;10344;47.592;9.600;2023-06-22T04:12:13;6.55;;;4.40;;
20369;SDS011;10344;47.592;9.600;2023-06-22T04:14:38;6.37;;;4.50;;
20369;SDS011;10344;47.592;9.600;2023-06-22T04:17:04;6.30;;;4.10;;
20369;SDS011;10344;47.592;9.600;2023-06-22T04:19:30;7.55;;;4.15;;
20369;SDS011;10344;47.592;9.600;2023-06-22T04:21:58;6.25;;;4.18;;
20369;SDS011;10344;47.592;9.600;2023-06-22T04:24:23;6.38;;;3.97;;
20369;SDS011;10344;47.592;9.600;2023-06-22T04:26:49;5.88;;;3.85;;
20369;SDS011;10344;47.592;9.600;2023-06-22T04:29:19;5.85;;;3.70;;
20369;SDS011;10344;47.592;9.600;2023-06-22T04:31:53;6.18;;;3.92;;
20369;SDS011;10344;47.592;9.600;2023-06-22T04:34:28;5.75;;;4.47;;
20369;SDS011;10344;47.592;9.600;2023-06-22T04:36:56;5.97;;;4.32;;
20369;SDS011;10344;47.592;9.600;2023-06-22T04:39:22;6.07;;;4.00;;
20369;SDS011;10344;47.592;9.600;2023-06-22T04:41:51;6.40;;;4.07;;
20369;SDS011;10344;47.592;9.600;2023-06-22T04:44:18;6.95;;;4.47;;
20369;SDS011;10344;47.592;9.600;2023-06-22T04:46:49;6.00;;;4.20;;
20369;SDS011;10344;47.592;9.600;2023-06-22T04:49:19;5.20;;;3.57;;
20369;SDS011;10344;47.592;9.600;2023-06-22T05:09:15;6.88;;;4.05;;
20369;SDS011;10344;47.592;9.600;2023-06-22T05:11:42;4.60;;;3.85;;
20369;SDS011;10344;47.592;9.600;2023-06-22T05:14:08;8.32;;;4.95;;
20369;SDS011;10344;47.592;9.600;2023-06-22T05:16:36;7.85;;;4.75;;
20369;SDS011;10344;47.592;9.600;2023-06-22T05:19:02;7.45;;;4.07;;
20369;SDS011;10344;47.592;9.600;2023-06-22T05:21:31;8.60;;;4.78;;
20369;SDS011;10344;47.592;9.600;2023-06-22T05:23:57;6.07;;;4.38;;
20369;SDS011;10344;47.592;9.600;2023-06-22T05:26:27;6.13;;;4.15;;
20369;SDS011;10344;47.592;9.600;2023-06-22T05:28:56;6.80;;;4.03;;
20369;SDS011;10344;47.592;9.600;2023-06-22T05:31:22;5.97;;;4.05;;
20369;SDS011;10344;47.592;9.600;2023-06-22T05:33:52;9.77;;;4.63;;
20369;SDS011;10344;47.592;9.600;2023-06-22T05:36:24;6.18;;;4.40;;
20369;SDS011;10344;47.592;9.600;2023-06-22T05:38:52;8.35;;;4.60;;
20369;SDS011;10344;47.592;9.600;2023-06-22T05:41:18;6.22;;;4.35;;
20369;SDS011;10344;47.592;9.600;2023-06-22T05:43:44;6.53;;;4.30;;
20369;SDS011;10344;47.592;9.600;2023-06-22T05:46:12;8.90;;;4.88;;
20369;SDS011;10344;47.592;9.600;2023-06-22T05:48:38;6.33;;;3.90;;
20369;SDS011;10344;47.592;9.600;2023-06-22T05:51:06;8.52;;;4.95;;
20369;SDS011;10344;47.592;9.600;2023-06-22T05:53:31;7.63;;;4.90;;
20369;SDS011;10344;47.592;9.600;2023-06-22T05:55:57;9.50;;;5.40;;
20369;SDS011;10344;47.592;9.600;2023-06-22T05:58:29;9.70;;;5.60;;
20369;SDS011;10344;47.592;9.600;2023-06-22T06:00:56;6.90;;;4.53;;
20369;SDS011;10344;47.592;9.600;2023-06-22T06:03:22;7.20;;;4.65;;
20369;SDS011;10344;47.592;9.600;2023-06-22T06:05:50;6.40;;;4.73;;
20369;SDS011;10344;47.592;9.600;2023-06-22T06:08:15;8.47;;;4.40;;
20369;SDS011;10344;47.592;9.600;2023-06-22T06:10:43;8.55;;;4.95;;
20369;SDS011;10344;47.592;9.600;2023-06-22T06:13:11;10.00;;;5.10;;
20369;SDS011;10344;47.592;9.600;2023-06-22T06:15:37;9.57;;;5.65;;
20369;SDS011;10344;47.592;9.600;2023-06-22T06:18:03;10.88;;;5.63;;
20369;SDS011;10344;47.592;9.600;2023-06-22T06:20:36;10.23;;;5.22;;
20369;SDS011;10344;47.592;9.600;2023-06-22T06:27:55;9.63;;;5.57;;
20369;SDS011;10344;47.592;9.600;2023-06-22T06:30:26;9.10;;;5.72;;
20369;SDS011;10344;47.592;9.600;2023-06-22T06:32:53;10.98;;;5.88;;
20369;SDS011;10344;47.592;9.600;2023-06-22T06:35:19;8.97;;;5.93;;
20369;SDS011;10344;47.592;9.600;2023-06-22T06:37:47;9.88;;;5.68;;
20369;SDS011;10344;47.592;9.600;2023-06-22T06:40:16;10.23;;;5.88;;
20369;SDS011;10344;47.592;9.600;2023-06-22T06:45:28;8.63;;;5.90;;
20369;SDS011;10344;47.592;9.600;2023-06-22T06:47:55;10.05;;;5.55;;
20369;SDS011;10344;47.592;9.600;2023-06-22T06:50:23;8.10;;;5.20;;
20369;SDS011;10344;47.592;9.600;2023-06-22T06:52:49;9.68;;;5.82;;
20369;SDS011;10344;47.592;9.600;2023-06-22T06:55:15;10.83;;;5.50;;
20369;SDS011;10344;47.592;9.600;2023-06-22T06:57:41;12.60;;;5.47;;
20369;SDS011;10344;47.592;9.600;2023-06-22T07:00:13;10.20;;;5.53;;
20369;SDS011;10344;47.592;9.600;2023-06-22T07:02:40;8.63;;;5.40;;
20369;SDS011;10344;47.592;9.600;2023-06-22T07:05:08;10.82;;;5.13;;
20369;SDS011;10344;47.592;9.600;2023-06-22T07:07:37;7.40;;;4.57;;
20369;SDS011;10344;47.592;9.600;2023-06-22T07:10:06;7.78;;;5.13;;
20369;SDS011;10344;47.592;9.600;2023-06-22T07:12:32;10.40;;;6.00;;
20369;SDS011;10344;47.592;9.600;2023-06-22T07:15:05;8.73;;;5.40;;
20369;SDS011;10344;47.592;9.600;2023-06-22T07:17:37;11.33;;;5.40;;
20369;SDS011;10344;47.592;9.600;2023-06-22T07:20:05;9.02;;;5.63;;
20369;SDS011;10344;47.592;9.600;2023-06-22T07:22:37;8.30;;;5.78;;
20369;SDS011;10344;47.592;9.600;2023-06-22T07:25:03;10.40;;;5.50;;
20369;SDS011;10344;47.592;9.600;2023-06-22T07:27:34;9.05;;;6.00;;
20369;SDS011;10344;47.592;9.600;2023-06-22T07:30:10;11.48;;;6.30;;
20369;SDS011;10344;47.592;9.600;2023-06-22T07:32:36;8.80;;;5.53;;
20369;SDS011;10344;47.592;9.600;2023-06-22T07:35:02;10.43;;;5.95;;
20369;SDS011;10344;47.592;9.600;2023-06-22T07:37:29;10.07;;;5.47;;
20369;SDS011;10344;47.592;9.600;2023-06-22T07:39:55;9.15;;;5.22;;
20369;SDS011;10344;47.592;9.600;2023-06-22T07:42:24;9.27;;;5.82;;
20369;SDS011;10344;47.592;9.600;2023-06-22T07:44:51;10.20;;;5.72;;
20369;SDS011;10344;47.592;9.600;2023-06-22T07:47:16;8.00;;;5.33;;
20369;SDS011;10344;47.592;9.600;2023-06-22T07:49:50;9.73;;;5.32;;
20369;SDS011;10344;47.592;9.600;2023-06-22T07:52:19;9.60;;;5.47;;
20369;SDS011;10344;47.592;9.600;2023-06-22T07:54:46;8.90;;;5.57;;
20369;SDS011;10344;47.592;9.600;2023-06-22T07:59:39;9.10;;;5.47;;
20369;SDS011;10344;47.592;9.600;2023-06-22T08:02:07;9.95;;;5.38;;
20369;SDS011;10344;47.592;9.600;2023-06-22T08:04:34;8.30;;;4.50;;
20369;SDS011;10344;47.592;9.600;2023-06-22T08:07:04;7.20;;;4.70;;
20369;SDS011;10344;47.592;9.600;2023-06-22T08:09:33;8.82;;;4.75;;
20369;SDS011;10344;47.592;9.600;2023-06-22T08:11:59;7.25;;;4.22;;
20369;SDS011;10344;47.592;9.600;2023-06-22T08:14:27;7.90;;;4.10;;
20369;SDS011;10344;47.592;9.600;2023-06-22T08:19:22;11.25;;;4.53;;
20369;SDS011;10344;47.592;9.600;2023-06-22T08:21:47;8.03;;;4.03;;
20369;SDS011;10344;47.592;9.600;2023-06-22T08:24:18;8.23;;;4.82;;
20369;SDS011;10344;47.592;9.600;2023-06-22T08:26:51;10.50;;;5.57;;
20369;SDS011;10344;47.592;9.600;2023-06-22T08:29:24;11.70;;;6.07;;
20369;SDS011;10344;47.592;9.600;2023-06-22T08:31:52;7.05;;;5.22;;
20369;SDS011;10344;47.592;9.600;2023-06-22T08:39:16;9.90;;;6.20;;
20369;SDS011;10344;47.592;9.600;2023-06-22T08:41:45;10.27;;;6.07;;
20369;SDS011;10344;47.592;9.600;2023-06-22T08:44:11;11.00;;;6.07;;
20369;SDS011;10344;47.592;9.600;2023-06-22T08:46:37;10.57;;;5.93;;
20369;SDS011;10344;47.592;9.600;2023-06-22T08:49:06;12.95;;;6.28;;
20369;SDS011;10344;47.592;9.600;2023-06-22T08:51:35;9.05;;;5.68;;
20369;SDS011;10344;47.592;9.600;2023-06-22T08:54:01;8.98;;;5.82;;
20369;SDS011;10344;47.592;9.600;2023-06-22T08:56:26;9.93;;;6.20;;
20369;SDS011;10344;47.592;9.600;2023-06-22T08:58:52;9.13;;;6.17;;
20369;SDS011;10344;47.592;9.600;2023-06-22T09:01:20;9.80;;;5.90;;
20369;SDS011;10344;47.592;9.600;2023-06-22T09:03:49;9.43;;;5.90;;
20369;SDS011;10344;47.592;9.600;2023-06-22T09:06:20;8.57;;;4.90;;
20369;SDS011;10344;47.592;9.600;2023-06-22T09:08:46;9.10;;;5.23;;
20369;SDS011;10344;47.592;9.600;2023-06-22T09:11:14;8.10;;;5.15;;
20369;SDS011;10344;47.592;9.600;2023-06-22T09:13:40;8.57;;;4.93;;
20369;SDS011;10344;47.592;9.600;2023-06-22T09:16:08;6.57;;;4.25;;
20369;SDS011;10344;47.592;9.600;2023-06-22T09:18:37;9.98;;;4.88;;
20369;SDS011;10344;47.592;9.600;2023-06-22T09:21:05;6.78;;;4.60;;
20369;SDS011;10344;47.592;9.600;2023-06-22T09:23:33;10.07;;;4.88;;
20369;SDS011;10344;47.592;9.600;2023-06-22T09:26:03;9.25;;;5.50;;
20369;SDS011;10344;47.592;9.600;2023-06-22T09:28:29;9.35;;;4.97;;
20369;SDS011;10344;47.592;9.600;2023-06-22T09:30:55;9.27;;;4.93;;
20369;SDS011;10344;47.592;9.600;2023-06-22T09:33:23;9.48;;;5.68;;
20369;SDS011;10344;47.592;9.600;2023-06-22T09:35:49;9.40;;;5.13;;
20369;SDS011;10344;47.592;9.600;2023-06-22T09:38:17;13.15;;;5.20;;
20369;SDS011;10344;47.592;9.600;2023-06-22T09:40:43;9.47;;;4.97;;
20369;SDS011;10344;47.592;9.600;2023-06-22T09:43:11;8.32;;;4.90;;
20369;SDS011;10344;47.592;9.600;2023-06-22T09:45:39;8.37;;;5.13;;
20369;SDS011;10344;47.592;9.600;2023-06-22T09:48:07;10.23;;;5.70;;
20369;SDS011;10344;47.592;9.600;2023-06-22T09:50:32;7.37;;;5.13;;
20369;SDS011;10344;47.592;9.600;2023-06-22T09:52:58;9.13;;;5.70;;
20369;SDS011;10344;47.592;9.600;2023-06-22T09:55:23;8.63;;;4.90;;
20369;SDS011;10344;47.592;9.600;2023-06-22T09:57:49;9.35;;;5.53;;
20369;SDS011;10344;47.592;9.600;2023-06-22T10:00:17;8.55;;;4.70;;
20369;SDS011;10344;47.592;9.600;2023-06-22T10:02:44;8.32;;;5.03;;
20369;SDS011;10344;47.592;9.600;2023-06-22T10:05:10;7.20;;;4.60;;
20369;SDS011;10344;47.592;9.600;2023-06-22T10:07:35;7.05;;;4.60;;
20369;SDS011;10344;47.592;9.600;2023-06-22T10:10:05;10.75;;;5.55;;
20369;SDS011;10344;47.592;9.600;2023-06-22T10:12:31;8.70;;;4.43;;
20369;SDS011;10344;47.592;9.600;2023-06-22T10:15:00;8.70;;;4.73;;
20369;SDS011;10344;47.592;9.600;2023-06-22T10:17:25;7.53;;;5.22;;
20369;SDS011;10344;47.592;9.600;2023-06-22T10:19:53;8.75;;;4.40;;
20369;SDS011;10344;47.592;9.600;2023-06-22T10:22:21;7.18;;;4.45;;
20369;SDS011;10344;47.592;9.600;2023-06-22T10:24:47;6.83;;;4.13;;
20369;SDS011;10344;47.592;9.600;2023-06-22T10:27:14;9.23;;;4.70;;
20369;SDS011;10344;47.592;9.600;2023-06-22T10:29:42;7.30;;;4.13;;
20369;SDS011;10344;47.592;9.600;2023-06-22T10:32:10;9.18;;;5.40;;
20369;SDS011;10344;47.592;9.600;2023-06-22T10:34:38;7.57;;;4.50;;
20369;SDS011;10344;47.592;9.600;2023-06-22T10:37:06;7.40;;;4.47;;
20369;SDS011;10344;47.592;9.600;2023-06-22T10:39:32;8.75;;;4.72;;
20369;SDS011;10344;47.592;9.600;2023-06-22T10:41:57;8.63;;;4.40;;
20369;SDS011;10344;47.592;9.600;2023-06-22T10:44:25;7.87;;;4.47;;
20369;SDS011;10344;47.592;9.600;2023-06-22T10:46:51;6.50;;;4.00;;
20369;SDS011;10344;47.592;9.600;2023-06-22T10:49:19;6.50;;;4.50;;
20369;SDS011;10344;47.592;9.600;2023-06-22T10:51:44;8.40;;;4.37;;
20369;SDS011;10344;47.592;9.600;2023-06-22T10:54:10;7.85;;;4.03;;
20369;SDS011;10344;47.592;9.600;2023-06-22T10:56:38;6.90;;;4.17;;
20369;SDS011;10344;47.592;9.600;2023-06-22T10:59:06;7.28;;;4.22;;
20369;SDS011;10344;47.592;9.600;2023-06-22T11:01:32;8.00;;;4.47;;
20369;SDS011;10344;47.592;9.600;2023-06-22T11:04:00;8.05;;;4.40;;
20369;SDS011;10344;47.592;9.600;2023-06-22T11:06:25;8.00;;;4.22;;
20369;SDS011;10344;47.592;9.600;2023-06-22T11:08:51;7.88;;;4.43;;
20369;SDS011;10344;47.592;9.600;2023-06-22T11:11:19;7.60;;;4.28;;
20369;SDS011;10344;47.592;9.600;2023-06-22T11:13:45;7.23;;;4.03;;
20369;SDS011;10344;47.592;9.600;2023-06-22T11:16:10;8.27;;;4.33;;
20369;SDS011;10344;47.592;9.600;2023-06-22T11:18:36;11.02;;;4.80;;
20369;SDS011;10344;47.592;9.600;2023-06-22T11:21:02;7.53;;;4.40;;
20369;SDS011;10344;47.592;9.600;2023-06-22T11:23:30;10.80;;;5.80;;
20369;SDS011;10344;47.592;9.600;2023-06-22T11:25:56;12.73;;;7.47;;
20369;SDS011;10344;47.592;9.600;2023-06-22T11:28:21;10.73;;;7.40;;
20369;SDS011;10344;47.592;9.600;2023-06-22T11:30:47;11.93;;;7.87;;
20369;SDS011;10344;47.592;9.600;2023-06-22T11:33:13;14.93;;;7.90;;
20369;SDS011;10344;47.592;9.600;2023-06-22T11:35:38;13.90;;;8.30;;
20369;SDS011;10344;47.592;9.600;2023-06-22T11:38:04;15.48;;;9.13;;
20369;SDS011;10344;47.592;9.600;2023-06-22T11:40:35;14.82;;;9.10;;
20369;SDS011;10344;47.592;9.600;2023-06-22T11:43:00;12.87;;;7.23;;
20369;SDS011;10344;47.592;9.600;2023-06-22T11:45:29;12.25;;;9.05;;
20369;SDS011;10344;47.592;9.600;2023-06-22T11:47:54;13.55;;;9.05;;
20369;SDS011;10344;47.592;9.600;2023-06-22T11:50:22;14.73;;;8.83;;
20369;SDS011;10344;47.592;9.600;2023-06-22T11:52:52;13.55;;;8.18;;
20369;SDS011;10344;47.592;9.600;2023-06-22T11:55:20;13.25;;;9.20;;
20369;SDS011;10344;47.592;9.600;2023-06-22T11:57:55;12.55;;;8.02;;
20369;SDS011;10344;47.592;9.600;2023-06-22T12:00:25;15.50;;;9.32;;
20369;SDS011;10344;47.592;9.600;2023-06-22T12:02:51;15.98;;;9.20;;
20369;SDS011;10344;47.592;9.600;2023-06-22T12:07:46;11.75;;;7.50;;
20369;SDS011;10344;47.592;9.600;2023-06-22T12:10:14;10.73;;;6.70;;
20369;SDS011;10344;47.592;9.600;2023-06-22T12:12:40;13.33;;;7.80;;
20369;SDS011;10344;47.592;9.600;2023-06-22T12:15:07;10.40;;;6.45;;
20369;SDS011;10344;47.592;9.600;2023-06-22T12:17:37;10.98;;;6.82;;
20369;SDS011;10344;47.592;9.600;2023-06-22T12:20:05;12.48;;;8.52;;
20369;SDS011;10344;47.592;9.600;2023-06-22T12:22:34;12.30;;;7.85;;
20369;SDS011;10344;47.592;9.600;2023-06-22T12:25:06;11.98;;;8.05;;
20369;SDS011;10344;47.592;9.600;2023-06-22T12:27:32;9.10;;;5.97;;
20369;SDS011;10344;47.592;9.600;2023-06-22T12:30:00;10.13;;;6.40;;
20369;SDS011;10344;47.592;9.600;2023-06-22T12:32:26;9.20;;;6.20;;
20369;SDS011;10344;47.592;9.600;2023-06-22T12:34:55;9.15;;;6.18;;
20369;SDS011;10344;47.592;9.600;2023-06-22T12:37:21;12.57;;;7.25;;
20369;SDS011;10344;47.592;9.600;2023-06-22T12:39:47;13.57;;;8.57;;
20369;SDS011;10344;47.592;9.600;2023-06-22T12:42:15;14.07;;;8.23;;
20369;SDS011;10344;47.592;9.600;2023-06-22T12:44:41;11.05;;;8.23;;
20369;SDS011;10344;47.592;9.600;2023-06-22T12:47:08;10.10;;;6.68;;
20369;SDS011;10344;47.592;9.600;2023-06-22T12:49:37;10.93;;;5.63;;
20369;SDS011;10344;47.592;9.600;2023-06-22T12:52:03;8.15;;;5.78;;
20369;SDS011;10344;47.592;9.600;2023-06-22T12:54:33;7.10;;;5.37;;
20369;SDS011;10344;47.592;9.600;2023-06-22T12:57:01;10.55;;;7.93;;
20369;SDS011;10344;47.592;9.600;2023-06-22T12:59:27;12.03;;;6.93;;
20369;SDS011;10344;47.592;9.600;2023-06-22T13:01:52;12.80;;;7.50;;
20369;SDS011;10344;47.592;9.600;2023-06-22T13:04:20;10.30;;;7.10;;
20369;SDS011;10344;47.592;9.600;2023-06-22T13:06:46;12.27;;;7.70;;
20369;SDS011;10344;47.592;9.600;2023-06-22T13:09:13;13.80;;;7.55;;
20369;SDS011;10344;47.592;9.600;2023-06-22T13:11:40;12.23;;;7.45;;
20369;SDS011;10344;47.592;9.600;2023-06-22T13:14:07;11.35;;;7.40;;
20369;SDS011;10344;47.592;9.600;2023-06-22T13:16:32;11.00;;;7.00;;
20369;SDS011;10344;47.592;9.600;2023-06-22T13:19:01;14.37;;;7.93;;
20369;SDS011;10344;47.592;9.600;2023-06-22T13:21:27;10.85;;;6.47;;
20369;SDS011;10344;47.592;9.600;2023-06-22T13:23:53;11.37;;;6.83;;
20369;SDS011;10344;47.592;9.600;2023-06-22T13:26:18;14.82;;;7.68;;
20369;SDS011;10344;47.592;9.600;2023-06-22T13:28:45;9.88;;;6.82;;
20369;SDS011;10344;47.592;9.600;2023-06-22T13:31:11;10.23;;;6.03;;
20369;SDS011;10344;47.592;9.600;2023-06-22T13:33:37;12.90;;;7.93;;
20369;SDS011;10344;47.592;9.600;2023-06-22T13:36:03;13.23;;;8.98;;
20369;SDS011;10344;47.592;9.600;2023-06-22T13:38:32;14.53;;;8.50;;
20369;SDS011;10344;47.592;9.600;2023-06-22T13:41:03;11.57;;;7.28;;
20369;SDS011;10344;47.592;9.600;2023-06-22T13:43:29;13.75;;;8.77;;
20369;SDS011;10344;47.592;9.600;2023-06-22T13:45:58;15.60;;;8.35;;
20369;SDS011;10344;47.592;9.600;2023-06-22T13:48:30;11.23;;;7.53;;
20369;SDS011;10344;47.592;9.600;2023-06-22T13:50:58;13.63;;;8.13;;
20369;SDS011;10344;47.592;9.600;2023-06-22T13:53:24;13.83;;;8.17;;
20369;SDS011;10344;47.592;9.600;2023-06-22T13:55:51;13.57;;;8.18;;
20369;SDS011;10344;47.592;9.600;2023-06-22T13:58:16;16.57;;;8.97;;
20369;SDS011;10344;47.592;9.600;2023-06-22T14:00:46;13.35;;;8.32;;
20369;SDS011;10344;47.592;9.600;2023-06-22T14:03:14;9.68;;;6.07;;
20369;SDS011;10344;47.592;9.600;2023-06-22T14:05:43;17.88;;;8.80;;
20369;SDS011;10344;47.592;9.600;2023-06-22T14:08:09;12.65;;;7.47;;
20369;SDS011;10344;47.592;9.600;2023-06-22T14:10:37;10.53;;;7.37;;
20369;SDS011;10344;47.592;9.600;2023-06-22T14:13:07;14.27;;;8.48;;
20369;SDS011;10344;47.592;9.600;2023-06-22T14:15:32;13.73;;;8.97;;
20369;SDS011;10344;47.592;9.600;2023-06-22T14:17:58;10.90;;;7.22;;
20369;SDS011;10344;47.592;9.600;2023-06-22T14:20:26;14.00;;;9.00;;
20369;SDS011;10344;47.592;9.600;2023-06-22T14:22:54;12.10;;;8.47;;
20369;SDS011;10344;47.592;9.600;2023-06-22T14:25:20;12.30;;;7.72;;
20369;SDS011;10344;47.592;9.600;2023-06-22T14:27:46;12.40;;;8.60;;
20369;SDS011;10344;47.592;9.600;2023-06-22T14:30:11;12.43;;;7.88;;
20369;SDS011;10344;47.592;9.600;2023-06-22T14:32:39;11.47;;;6.93;;
20369;SDS011;10344;47.592;9.600;2023-06-22T14:35:08;11.85;;;7.55;;
20369;SDS011;10344;47.592;9.600;2023-06-22T14:37:36;9.30;;;7.50;;
20369;SDS011;10344;47.592;9.600;2023-06-22T14:40:01;12.63;;;7.65;;
20369;SDS011;10344;47.592;9.600;2023-06-22T14:42:27;13.80;;;8.20;;
20369;SDS011;10344;47.592;9.600;2023-06-22T14:44:55;13.70;;;8.05;;
20369;SDS011;10344;47.592;9.600;2023-06-22T14:47:23;12.13;;;7.60;;
20369;SDS011;10344;47.592;9.600;2023-06-22T14:49:54;10.13;;;7.47;;
20369;SDS011;10344;47.592;9.600;2023-06-22T14:52:22;10.18;;;7.10;;
20369;SDS011;10344;47.592;9.600;2023-06-22T14:54:50;10.27;;;7.23;;
20369;SDS011;10344;47.592;9.600;2023-06-22T14:57:18;10.00;;;6.30;;
20369;SDS011;10344;47.592;9.600;2023-06-22T14:59:50;6.50;;;5.57;;
20369;SDS011;10344;47.592;9.600;2023-06-22T15:02:16;10.23;;;6.85;;
20369;SDS011;10344;47.592;9.600;2023-06-22T15:04:41;9.23;;;6.13;;
20369;SDS011;10344;47.592;9.600;2023-06-22T15:07:10;10.48;;;6.25;;
20369;SDS011;10344;47.592;9.600;2023-06-22T15:09:35;14.83;;;8.17;;
20369;SDS011;10344;47.592;9.600;2023-06-22T15:12:06;12.18;;;7.65;;
20369;SDS011;10344;47.592;9.600;2023-06-22T15:14:36;10.82;;;6.95;;
20369;SDS011;10344;47.592;9.600;2023-06-22T15:17:06;11.50;;;7.15;;
20369;SDS011;10344;47.592;9.600;2023-06-22T15:19:39;15.57;;;8.48;;
20369;SDS011;10344;47.592;9.600;2023-06-22T15:22:05;12.18;;;7.88;;
20369;SDS011;10344;47.592;9.600;2023-06-22T15:24:34;7.72;;;5.85;;
20369;SDS011;10344;47.592;9.600;2023-06-22T15:27:02;10.80;;;6.50;;
20369;SDS011;10344;47.592;9.600;2023-06-22T15:29:28;13.93;;;6.57;;
20369;SDS011;10344;47.592;9.600;2023-06-22T15:31:59;10.45;;;5.90;;
20369;SDS011;10344;47.592;9.600;2023-06-22T15:34:27;6.87;;;4.47;;
20369;SDS011;10344;47.592;9.600;2023-06-22T15:36:55;7.07;;;4.72;;
20369;SDS011;10344;47.592;9.600;2023-06-22T15:39:21;7.40;;;4.60;;
20369;SDS011;10344;47.592;9.600;2023-06-22T15:41:50;7.15;;;4.53;;
20369;SDS011;10344;47.592;9.600;2023-06-22T15:44:19;6.53;;;4.60;;
20369;SDS011;10344;47.592;9.600;2023-06-22T15:46:45;6.90;;;4.73;;
20369;SDS011;10344;47.592;9.600;2023-06-22T15:49:11;8.32;;;4.80;;
20369;SDS011;10344;47.592;9.600;2023-06-22T15:51:38;7.07;;;3.92;;
20369;SDS011;10344;47.592;9.600;2023-06-22T15:54:08;6.05;;;3.70;;
20369;SDS011;10344;47.592;9.600;2023-06-22T15:56:37;5.88;;;3.58;;
20369;SDS011;10344;47.592;9.600;2023-06-22T15:59:05;6.63;;;3.50;;
20369;SDS011;10344;47.592;9.600;2023-06-22T16:01:30;6.60;;;3.10;;
20369;SDS011;10344;47.592;9.600;2023-06-22T16:03:58;7.57;;;3.08;;
20369;SDS011;10344;47.592;9.600;2023-06-22T16:06:28;7.75;;;3.80;;
20369;SDS011;10344;47.592;9.600;2023-06-22T16:08:56;5.63;;;2.70;;
20369;SDS011;10344;47.592;9.600;2023-06-22T16:11:22;5.65;;;2.95;;
20369;SDS011;10344;47.592;9.600;2023-06-22T16:13:50;6.67;;;3.07;;
20369;SDS011;10344;47.592;9.600;2023-06-22T16:16:16;6.18;;;2.67;;
20369;SDS011;10344;47.592;9.600;2023-06-22T16:18:46;5.75;;;2.90;;
20369;SDS011;10344;47.592;9.600;2023-06-22T16:21:18;7.70;;;2.97;;
20369;SDS011;10344;47.592;9.600;2023-06-22T16:26:14;5.97;;;2.90;;
20369;SDS011;10344;47.592;9.600;2023-06-22T16:38:31;6.78;;;2.53;;
20369;SDS011;10344;47.592;9.600;2023-06-22T16:40:58;7.35;;;2.90;;
20369;SDS011;10344;47.592;9.600;2023-06-22T16:43:28;8.20;;;2.80;;
20369;SDS011;10344;47.592;9.600;2023-06-22T16:45:54;6.65;;;2.70;;
20369;SDS011;10344;47.592;9.600;2023-06-22T16:48:19;6.27;;;2.33;;
20369;SDS011;10344;47.592;9.600;2023-06-22T16:50:47;7.22;;;3.08;;
20369;SDS011;10344;47.592;9.600;2023-06-22T16:53:13;5.80;;;2.67;;
20369;SDS011;10344;47.592;9.600;2023-06-22T16:55:39;6.47;;;3.17;;
20369;SDS011;10344;47.592;9.600;2023-06-22T16:58:09;9.70;;;3.30;;
20369;SDS011;10344;47.592;9.600;2023-06-22T17:00:38;6.70;;;2.90;;
20369;SDS011;10344;47.592;9.600;2023-06-22T17:03:11;6.20;;;3.05;;
20369;SDS011;10344;47.592;9.600;2023-06-22T17:05:41;6.85;;;3.10;;
20369;SDS011;10344;47.592;9.600;2023-06-22T17:08:07;10.20;;;3.50;;
20369;SDS011;10344;47.592;9.600;2023-06-22T17:10:38;6.77;;;3.20;;
20369;SDS011;10344;47.592;9.600;2023-06-22T17:13:04;9.50;;;3.57;;
20369;SDS011;10344;47.592;9.600;2023-06-22T17:18:01;5.13;;;3.28;;
20369;SDS011;10344;47.592;9.600;2023-06-22T17:20:31;8.63;;;3.72;;
20369;SDS011;10344;47.592;9.600;2023-06-22T17:22:57;7.28;;;3.50;;
20369;SDS011;10344;47.592;9.600;2023-06-22T17:25:26;7.65;;;3.60;;
20369;SDS011;10344;47.592;9.600;2023-06-22T17:27:58;10.20;;;3.58;;